Time;durP1;ratioP1;P1;durP2;ratioP2;P2;SDS_P1;SDS_P2;PMS_P1;PMS_P2;Temp;Humidity;BMP_temperature;BMP_pressure;BME280_temperature;BME280_humidity;BME280_pressure;Samples;Min_cycle;Max_cycle;Signal;HPM_P1;HPM_P2
2023/03/10 00:00:34;;;;;;;5.00;1.33;;;9.80;99.90;;;9.29;100.00;95326.41;4972195;28;22461;-48
2023/03/10 00:02:59;;;;;;;3.72;1.20;;;9.80;99.90;;;9.27;100.00;95323.03;4980630;28;20038;-51
2023/03/10 00:05:25;;;;;;;3.83;1.30;;;9.80;99.90;;;9.22;100.00;95304.06;4982982;28;20057;-49
2023/03/10 00:07:51;;;;;;;5.85;1.58;;;9.80;99.90;;;9.18;100.00;95307.84;4976835;28;20037;-48
2023/03/10 00:10:17;;;;;;;1.67;0.93;;;9.80;99.90;;;9.16;100.00;95291.34;4984642;28;20037;-48
2023/03/10 00:12:43;;;;;;;5.32;1.30;;;9.70;99.90;;;9.11;100.00;95282.91;4991344;28;20041;-48
2023/03/10 00:15:10;;;;;;;4.68;1.30;;;9.60;99.90;;;9.09;100.00;95269.84;4993818;28;20037;-50
2023/03/10 00:17:36;;;;;;;3.38;1.10;;;9.60;99.90;;;9.04;100.00;95269.28;4985655;28;20125;-52
2023/03/10 00:20:10;;;;;;;3.47;1.20;;;9.60;99.90;;;8.94;100.00;95253.28;4971340;28;20044;-48
2023/03/10 00:22:40;;;;;;;3.60;1.23;;;9.50;99.90;;;8.85;100.00;95253.06;4989573;28;20394;-49
2023/03/10 00:25:08;;;;;;;4.93;1.33;;;9.40;99.90;;;8.77;100.00;95251.75;4989411;28;20033;-50
2023/03/10 00:27:34;;;;;;;3.67;1.38;;;9.40;99.90;;;8.81;100.00;95264.69;4987206;28;20026;-52
2023/03/10 00:30:00;;;;;;;3.40;1.17;;;9.30;99.90;;;8.80;100.00;95248.06;4990055;28;20036;-50
2023/03/10 00:32:26;;;;;;;3.17;1.23;;;9.30;99.90;;;8.80;100.00;95245.44;4985333;28;20041;-51
2023/03/10 00:34:52;;;;;;;4.35;1.50;;;9.30;99.90;;;8.78;100.00;95239.44;4987260;28;20495;-50
2023/03/10 00:37:18;;;;;;;2.40;1.10;;;9.30;99.90;;;8.77;100.00;95243.00;4984382;28;20030;-53
2023/03/10 00:39:44;;;;;;;2.30;1.13;;;9.30;99.90;;;8.75;100.00;95229.97;4992157;28;20038;-51
2023/03/10 00:42:10;;;;;;;3.10;1.02;;;9.30;99.90;;;8.73;100.00;95218.72;4972319;28;20461;-51
2023/03/10 00:44:36;;;;;;;2.83;1.35;;;9.30;99.90;;;8.68;100.00;95212.91;4980129;28;20026;-49
2023/03/10 00:47:01;;;;;;;2.42;1.05;;;9.30;99.90;;;8.68;100.00;95219.97;4971635;28;20040;-48
2023/03/10 00:49:27;;;;;;;3.17;1.20;;;9.20;99.90;;;8.67;100.00;95218.25;4973766;28;20588;-50
2023/03/10 00:51:53;;;;;;;4.20;1.10;;;9.20;99.90;;;8.67;100.00;95220.88;4976439;28;20029;-50
2023/03/10 00:54:18;;;;;;;3.47;1.25;;;9.20;99.90;;;8.64;100.00;95211.44;4956774;28;20087;-51
2023/03/10 00:56:44;;;;;;;2.03;1.00;;;9.20;99.90;;;8.60;100.00;95210.78;4980235;28;20034;-48
2023/03/10 00:59:11;;;;;;;4.53;1.25;;;9.20;99.90;;;8.60;100.00;95210.78;4983012;28;20113;-48
2023/03/10 01:01:39;;;;;;;3.72;1.40;;;9.10;99.90;;;8.61;100.00;95214.25;4976743;28;20041;-48
2023/03/10 01:04:15;;;;;;;3.45;1.17;;;9.10;99.90;;;8.62;100.00;95207.22;4981003;28;20116;-49
2023/03/10 01:06:43;;;;;;;5.30;1.05;;;9.10;99.90;;;8.66;100.00;95188.53;4977397;28;20057;-51
2023/03/10 01:09:08;;;;;;;2.55;0.90;;;9.20;99.90;;;8.62;100.00;95197.56;4976986;28;20471;-48
2023/03/10 01:11:34;;;;;;;2.28;1.13;;;9.20;99.90;;;8.64;100.00;95190.41;4975219;28;20033;-52
2023/03/10 01:14:03;;;;;;;5.63;1.10;;;9.20;99.90;;;8.64;100.00;95189.56;4992122;28;20528;-49
2023/03/10 01:16:29;;;;;;;5.65;1.40;;;9.20;99.90;;;8.56;100.00;95174.28;4991116;28;20029;-48
2023/03/10 01:18:56;;;;;;;1.63;0.77;;;9.20;99.90;;;8.66;100.00;95182.44;4990071;28;20034;-52
2023/03/10 01:21:26;;;;;;;7.05;1.15;;;9.20;99.90;;;8.62;100.00;95171.28;4992250;28;20034;-48
2023/03/10 01:23:52;;;;;;;3.05;1.10;;;9.20;99.90;;;8.50;100.00;95157.13;4985106;28;20037;-49
2023/03/10 01:26:18;;;;;;;2.67;0.90;;;9.20;99.90;;;8.62;100.00;95167.81;4994998;28;20505;-49
2023/03/10 01:28:45;;;;;;;3.10;1.10;;;9.10;99.90;;;8.59;100.00;95169.69;4989202;28;20069;-48
2023/03/10 01:31:11;;;;;;;5.18;1.25;;;9.10;99.90;;;8.55;100.00;95170.00;4985309;28;20030;-49
2023/03/10 01:33:39;;;;;;;1.45;0.88;;;9.10;99.90;;;8.57;100.00;95161.06;4985247;28;20030;-49
2023/03/10 01:36:17;;;;;;;4.35;0.93;;;9.10;99.90;;;8.63;100.00;95164.22;4986397;28;20045;-48
2023/03/10 01:38:44;;;;;;;1.88;0.82;;;9.20;99.90;;;8.63;100.00;95165.06;4980478;28;21566;-49
2023/03/10 01:41:10;;;;;;;4.80;1.30;;;9.20;99.90;;;8.64;100.00;95150.16;5010762;23;20197;-46
2023/03/10 01:43:51;;;;;;;3.83;0.90;;;9.20;99.90;;;8.63;100.00;95145.84;5016310;28;20037;-42
2023/03/10 01:46:41;;;;;;;3.05;0.95;;;9.20;99.90;;;8.61;100.00;95148.56;5017187;28;20485;-47
2023/03/10 01:49:25;;;;;;;3.40;1.40;;;9.20;99.90;;;8.60;100.00;95160.88;5021173;28;20036;-44
2023/03/10 01:51:59;;;;;;;2.38;0.95;;;9.20;99.90;;;8.58;100.00;95144.38;5012994;28;20033;-46
2023/03/10 01:54:35;;;;;;;2.53;1.05;;;9.20;99.90;;;8.54;100.00;95142.88;5016393;28;20049;-44
2023/03/10 01:57:01;;;;;;;1.80;0.98;;;9.10;99.90;;;8.53;100.00;95140.34;5019270;28;20033;-44
2023/03/10 01:59:28;;;;;;;5.15;1.00;;;9.10;99.90;;;8.50;100.00;95143.16;5022485;28;20504;-46
2023/03/10 02:01:55;;;;;;;3.47;1.08;;;9.10;99.90;;;8.61;100.00;95127.53;5006292;28;20894;-47
2023/03/10 02:04:34;;;;;;;2.53;1.10;;;9.20;99.90;;;8.66;100.00;95133.34;5013787;28;20056;-46
2023/03/10 02:07:03;;;;;;;2.83;1.00;;;9.20;99.90;;;8.67;100.00;95121.03;5015013;28;20033;-46
2023/03/10 02:09:29;;;;;;;3.65;0.93;;;9.20;99.90;;;8.73;100.00;95121.50;5021690;28;20099;-46
2023/03/10 02:11:57;;;;;;;1.33;0.80;;;9.30;99.90;;;8.79;100.00;95128.13;5019149;28;20566;-45
2023/03/10 02:14:23;;;;;;;2.25;0.80;;;9.30;99.90;;;8.82;100.00;95116.59;5029038;28;20033;-45
2023/03/10 02:16:49;;;;;;;2.05;0.73;;;9.30;99.90;;;8.88;100.00;95113.53;5018974;28;20044;-46
2023/03/10 02:19:29;;;;;;;2.25;0.73;;;9.40;99.90;;;8.88;100.00;95111.78;5018547;28;20087;-46
2023/03/10 02:22:11;;;;;;;2.55;0.60;;;9.40;99.90;;;8.93;100.00;95120.16;5017229;28;20029;-45
2023/03/10 02:24:55;;;;;;;1.77;0.68;;;9.40;99.90;;;8.91;100.00;95124.69;5016697;28;20030;-45
2023/03/10 02:27:29;;;;;;;1.95;0.77;;;9.40;99.90;;;8.91;100.00;95121.22;5019142;28;20029;-44
2023/03/10 02:30:20;;;;;;;1.77;0.80;;;9.40;99.90;;;8.88;100.00;95114.41;5010651;28;20191;-46
2023/03/10 02:32:52;;;;;;;1.15;0.60;;;9.40;99.90;;;8.82;100.00;95108.69;5017495;28;20473;-47
2023/03/10 02:35:18;;;;;;;1.27;0.55;;;9.40;99.90;;;8.78;100.00;95114.16;5024324;28;20551;-45
2023/03/10 02:37:44;;;;;;;1.10;0.70;;;9.40;99.90;;;8.73;100.00;95113.59;5024972;28;20033;-45
2023/03/10 02:40:44;;;;;;;1.13;0.60;;;9.30;99.90;;;8.70;100.00;95119.06;5027039;28;20427;-45
2023/03/10 02:43:17;;;;;;;1.52;0.60;;;9.30;99.90;;;8.68;100.00;95109.59;5026088;28;20045;-46
2023/03/10 02:45:46;;;;;;;0.98;0.50;;;9.20;99.90;;;8.67;100.00;95114.03;5023667;28;20041;-48
2023/03/10 02:48:25;;;;;;;1.42;0.60;;;9.20;99.90;;;8.62;100.00;95096.88;5025555;28;20029;-45
2023/03/10 02:50:53;;;;;;;1.73;0.70;;;9.10;99.90;;;8.51;100.00;95093.16;5021818;28;20033;-46
2023/03/10 02:53:22;;;;;;;1.08;0.65;;;9.10;99.90;;;8.45;100.00;95083.03;5024500;28;20052;-45
2023/03/10 02:55:48;;;;;;;1.65;0.80;;;9.00;99.90;;;8.44;100.00;95086.63;5025584;28;20767;-45
2023/03/10 02:58:14;;;;;;;0.93;0.63;;;9.00;99.90;;;8.43;100.00;95079.69;5028677;28;20033;-44
2023/03/10 03:00:43;;;;;;;4.07;0.70;;;9.00;99.90;;;8.44;100.00;95073.50;5014593;28;20091;-45
2023/03/10 03:03:10;;;;;;;1.90;0.52;;;9.00;99.90;;;8.42;100.00;95080.66;5018262;28;20155;-45
2023/03/10 03:05:36;;;;;;;1.10;0.80;;;8.90;99.90;;;8.44;100.00;95070.03;5017078;28;20041;-45
2023/03/10 03:08:04;;;;;;;1.35;0.50;;;8.90;99.90;;;8.38;100.00;95081.72;5021657;28;20098;-47
2023/03/10 03:10:30;;;;;;;3.75;0.70;;;8.90;99.90;;;8.37;100.00;95082.69;5019368;28;20135;-47
2023/03/10 03:12:55;;;;;;;1.45;0.60;;;8.90;99.90;;;8.35;100.00;95093.28;5020321;28;20089;-45
2023/03/10 03:15:22;;;;;;;1.95;0.65;;;8.90;99.90;;;8.34;100.00;95094.22;5014803;28;20052;-45
2023/03/10 03:17:48;;;;;;;1.90;0.70;;;8.90;99.90;;;8.39;100.00;95091.31;5026861;28;20033;-46
2023/03/10 03:20:14;;;;;;;0.65;0.40;;;8.90;99.90;;;8.46;100.00;95086.53;5027026;28;20652;-44
2023/03/10 03:22:43;;;;;;;0.98;0.70;;;9.00;99.90;;;8.42;100.00;95091.16;5019951;28;20074;-44
2023/03/10 03:25:11;;;;;;;2.35;0.77;;;9.00;99.90;;;8.38;100.00;95086.97;5019199;28;20118;-46
2023/03/10 03:27:37;;;;;;;1.80;0.52;;;8.90;99.90;;;8.30;100.00;95084.03;5016773;28;20033;-45
2023/03/10 03:30:08;;;;;;;1.63;0.70;;;8.90;99.90;;;8.22;100.00;95064.38;5021039;28;20052;-44
2023/03/10 03:32:35;;;;;;;3.45;0.70;;;8.80;99.90;;;8.16;100.00;95066.53;5011088;28;20049;-44
2023/03/10 03:35:01;;;;;;;1.70;0.50;;;8.70;99.90;;;8.11;100.00;95066.00;5005216;28;20137;-44
2023/03/10 03:37:27;;;;;;;1.00;0.60;;;8.60;99.90;;;8.07;100.00;95062.72;5015856;28;20037;-44
2023/03/10 03:39:52;;;;;;;1.77;0.70;;;8.60;99.90;;;8.00;100.00;95050.94;5018501;28;20067;-46
2023/03/10 03:42:18;;;;;;;3.50;0.80;;;8.60;99.90;;;7.88;100.00;95043.84;5018056;28;20033;-45
2023/03/10 03:44:44;;;;;;;0.63;0.60;;;8.50;99.90;;;7.80;100.00;95039.09;5016991;28;20041;-48
2023/03/10 03:47:10;;;;;;;2.45;0.68;;;8.40;99.90;;;7.79;100.00;95053.16;5018482;28;20122;-48
2023/03/10 03:49:39;;;;;;;0.30;0.25;;;8.40;99.90;;;7.69;100.00;95055.50;5025874;28;20040;-44
2023/03/10 03:52:06;;;;;;;0.95;0.50;;;8.30;99.90;;;7.62;100.00;95057.66;5030810;28;20762;-45
2023/03/10 03:54:32;;;;;;;2.10;1.00;;;8.30;99.90;;;7.64;100.00;95065.44;5022318;28;20068;-46
2023/03/10 03:56:58;;;;;;;2.15;0.60;;;8.20;99.90;;;7.58;100.00;95050.94;5022370;28;20037;-45
2023/03/10 03:59:24;;;;;;;1.10;0.60;;;8.20;99.90;;;7.56;100.00;95042.31;5021153;28;20497;-44
2023/03/10 04:01:50;;;;;;;1.30;0.50;;;8.10;99.90;;;7.44;100.00;95037.84;5019007;28;20040;-43
2023/03/10 04:04:15;;;;;;;1.83;0.60;;;8.10;99.90;;;7.49;100.00;95035.78;5023204;28;20033;-43
2023/03/10 04:06:41;;;;;;;0.88;0.38;;;8.10;99.90;;;7.45;100.00;95040.38;5016982;28;20041;-44
2023/03/10 04:09:09;;;;;;;0.65;0.40;;;8.00;99.90;;;7.42;100.00;95042.34;5021858;28;20160;-43
2023/03/10 04:11:35;;;;;;;1.02;0.38;;;8.00;99.90;;;7.40;100.00;95041.59;5018288;28;20396;-43
2023/03/10 04:14:01;;;;;;;1.15;0.43;;;8.00;99.90;;;7.42;100.00;95037.94;5022193;28;20048;-44
2023/03/10 04:16:27;;;;;;;1.38;0.43;;;8.00;99.90;;;7.39;100.00;95038.16;5021431;28;20045;-44
2023/03/10 04:18:52;;;;;;;2.70;0.38;;;8.00;99.90;;;7.42;100.00;95037.09;5018255;28;20119;-44
2023/03/10 04:21:18;;;;;;;0.47;0.30;;;8.00;99.90;;;7.39;100.00;95030.28;5022692;28;20062;-44
2023/03/10 04:23:44;;;;;;;1.00;0.38;;;8.00;99.90;;;7.37;100.00;95026.88;5012397;28;20116;-44
2023/03/10 04:26:10;;;;;;;1.05;0.40;;;8.00;99.90;;;7.36;100.00;95035.72;5017221;28;20051;-45
2023/03/10 04:28:37;;;;;;;0.55;0.40;;;7.90;99.90;;;7.35;100.00;95036.63;5011843;28;20645;-44
2023/03/10 04:31:03;;;;;;;0.40;0.30;;;7.90;99.90;;;7.28;100.00;95027.47;5024001;28;20033;-44
2023/03/10 04:33:29;;;;;;;0.40;0.32;;;7.90;99.90;;;7.29;100.00;95038.81;5019791;28;20044;-44
2023/03/10 04:35:55;;;;;;;0.95;0.60;;;7.90;99.90;;;7.19;100.00;95033.28;5016194;28;20402;-45
2023/03/10 04:38:24;;;;;;;1.10;0.30;;;7.80;99.90;;;7.19;100.00;95041.13;5024219;28;20403;-44
2023/03/10 04:40:55;;;;;;;0.82;0.30;;;7.80;99.90;;;7.18;100.00;95036.84;5020011;28;20425;-45
2023/03/10 04:43:20;;;;;;;0.60;0.40;;;7.80;99.90;;;7.15;100.00;95037.03;5027405;28;20520;-45
2023/03/10 04:45:47;;;;;;;1.52;0.50;;;7.80;99.90;;;7.21;100.00;95034.88;5017289;28;20057;-46
2023/03/10 04:48:13;;;;;;;0.30;0.28;;;7.80;99.90;;;7.30;100.00;95043.09;5018062;28;20064;-44
2023/03/10 04:50:38;;;;;;;1.27;0.40;;;7.90;99.90;;;7.34;100.00;95040.22;5020277;28;20366;-48
2023/03/10 04:53:04;;;;;;;1.63;0.50;;;7.90;99.90;;;7.36;100.00;95040.94;5025364;28;20355;-46
2023/03/10 04:55:30;;;;;;;1.30;0.38;;;8.00;99.90;;;7.45;100.00;95042.16;5028638;28;20028;-47
2023/03/10 04:57:55;;;;;;;1.35;0.57;;;8.00;99.90;;;7.52;100.00;95024.25;5029741;28;20685;-46
2023/03/10 05:00:21;;;;;;;1.70;0.63;;;8.10;99.90;;;7.55;100.00;95029.31;5016887;28;20041;-45
2023/03/10 05:02:47;;;;;;;1.67;0.40;;;8.10;99.90;;;7.56;100.00;95010.84;5023315;28;20267;-44
2023/03/10 05:05:13;;;;;;;2.83;0.30;;;8.10;99.90;;;7.50;100.00;95007.78;5023991;28;20033;-47
2023/03/10 05:07:39;;;;;;;0.65;0.40;;;8.10;99.90;;;7.39;100.00;95001.44;5023663;28;20703;-45
2023/03/10 05:10:05;;;;;;;0.88;0.52;;;8.00;99.90;;;7.21;100.00;94994.69;5027781;28;20032;-45
2023/03/10 05:12:31;;;;;;;1.17;0.52;;;7.90;99.90;;;7.11;100.00;95006.72;5018387;28;20497;-44
2023/03/10 05:14:57;;;;;;;0.82;0.45;;;7.70;99.90;;;6.99;100.00;95003.06;5022037;28;20765;-45
2023/03/10 05:17:23;;;;;;;1.40;0.57;;;7.60;99.90;;;6.77;100.00;94983.41;5023631;28;20489;-46
2023/03/10 05:19:48;;;;;;;1.27;0.40;;;7.50;99.90;;;6.77;100.00;94993.03;5016033;28;20192;-45
2023/03/10 05:22:14;;;;;;;1.25;0.57;;;7.40;99.90;;;6.46;100.00;94953.81;5022933;28;20032;-47
2023/03/10 05:24:40;;;;;;;0.93;0.60;;;7.30;99.90;;;6.63;100.00;94986.84;5019295;28;20268;-43
2023/03/10 05:27:07;;;;;;;1.33;0.60;;;7.20;99.90;;;6.57;100.00;94981.97;5023050;28;20033;-45
2023/03/10 05:29:33;;;;;;;2.58;0.50;;;7.20;99.90;;;6.45;100.00;94959.97;5020214;28;20039;-44
2023/03/10 05:31:59;;;;;;;1.38;0.50;;;7.10;99.90;;;6.46;100.00;94973.91;5018742;28;20037;-45
2023/03/10 05:34:25;;;;;;;0.65;0.57;;;7.10;99.90;;;6.39;100.00;94969.97;5018198;28;20468;-44
2023/03/10 05:36:51;;;;;;;1.58;0.40;;;7.00;99.90;;;6.27;100.00;94969.75;5019944;28;20420;-44
2023/03/10 05:39:17;;;;;;;1.58;0.50;;;6.90;99.90;;;6.21;100.00;94967.53;5015215;28;20032;-48
2023/03/10 05:41:43;;;;;;;1.50;0.50;;;6.90;99.90;;;6.16;100.00;94981.81;5018776;28;20116;-48
2023/03/10 05:44:09;;;;;;;4.07;1.27;;;6.80;99.90;;;6.13;100.00;94980.19;5020465;28;20155;-47
2023/03/10 05:46:35;;;;;;;1.13;0.70;;;6.80;99.90;;;6.15;100.00;94987.97;5017232;28;20033;-47
2023/03/10 05:49:00;;;;;;;10.88;0.90;;;6.80;99.90;;;6.18;100.00;94975.53;5024881;28;20036;-46
2023/03/10 05:51:27;;;;;;;1.65;0.63;;;6.80;99.90;;;6.29;100.00;94991.44;5024588;28;20041;-45
2023/03/10 05:53:53;;;;;;;1.33;0.60;;;6.90;99.90;;;6.04;100.00;94925.78;5024736;28;20068;-44
2023/03/10 05:56:19;;;;;;;2.10;0.80;;;6.90;99.90;;;6.49;100.00;94971.09;5024359;28;20471;-46
2023/03/10 05:58:46;;;;;;;1.77;0.80;;;7.10;99.90;;;6.65;100.00;94966.63;5024119;28;20045;-45
2023/03/10 06:01:12;;;;;;;4.38;0.70;;;7.30;99.90;;;6.84;100.00;94955.06;5026143;28;20321;-46
2023/03/10 06:03:38;;;;;;;2.88;0.63;;;7.40;99.90;;;7.02;100.00;94953.91;5021943;28;20355;-46
2023/03/10 06:06:05;;;;;;;2.78;0.60;;;7.60;99.90;;;7.17;100.00;94949.50;5024021;28;20444;-47
2023/03/10 06:08:32;;;;;;;1.88;0.80;;;7.80;99.90;;;7.33;100.00;94936.25;5026709;28;20481;-44
2023/03/10 06:10:59;;;;;;;3.65;0.70;;;7.90;99.90;;;7.38;100.00;94926.34;5020400;28;20056;-47
2023/03/10 06:13:25;;;;;;;3.30;0.90;;;8.10;99.90;;;7.68;100.00;94946.28;5024353;28;20468;-44
2023/03/10 06:15:54;;;;;;;2.88;1.08;;;8.30;99.90;;;7.89;100.00;94944.03;5025833;28;20053;-46
2023/03/10 06:18:21;;;;;;;2.42;0.60;;;8.40;99.90;;;8.08;100.00;94943.69;5019683;28;20040;-44
2023/03/10 06:20:47;;;;;;;5.72;1.15;;;8.60;99.90;;;8.09;100.00;94929.59;5026281;28;20036;-46
2023/03/10 06:23:15;;;;;;;2.20;0.70;;;8.80;99.90;;;8.31;100.00;94955.28;5021905;28;20250;-44
2023/03/10 06:25:41;;;;;;;1.83;0.70;;;8.90;99.90;;;8.30;100.00;94942.25;5022185;28;20082;-46
2023/03/10 06:28:07;;;;;;;2.78;0.70;;;8.80;99.90;;;8.21;100.00;94930.56;5026960;28;20485;-44
2023/03/10 06:30:33;;;;;;;4.07;0.93;;;8.70;99.90;;;8.10;100.00;94914.72;5028669;28;20041;-45
2023/03/10 06:33:00;;;;;;;4.10;0.80;;;8.70;99.90;;;7.90;100.00;94868.81;5031734;28;20087;-47
2023/03/10 06:35:26;;;;;;;4.55;0.90;;;8.60;99.90;;;7.87;100.00;94874.25;5025250;28;20030;-46
2023/03/10 06:37:52;;;;;;;1.75;0.70;;;8.50;99.90;;;7.79;100.00;94865.09;5027078;28;20059;-45
2023/03/10 06:40:18;;;;;;;7.40;0.80;;;8.40;99.90;;;7.70;100.00;94836.84;5029097;28;20032;-47
2023/03/10 06:42:44;;;;;;;2.60;0.70;;;8.30;99.90;;;7.62;100.00;94834.72;5026201;28;20039;-44
2023/03/10 06:45:14;;;;;;;1.52;0.40;;;8.30;99.90;;;7.37;100.00;94840.75;5026567;28;20370;-46
2023/03/10 06:47:40;;;;;;;2.58;0.60;;;8.10;99.90;;;7.47;100.00;94869.00;5025414;28;20029;-46
2023/03/10 06:50:07;;;;;;;1.08;0.50;;;8.00;99.90;;;7.32;100.00;94886.53;5029988;28;20254;-48
2023/03/10 06:52:34;;;;;;;2.00;0.45;;;7.90;99.90;;;7.17;100.00;94889.22;5032210;28;20024;-47
2023/03/10 06:55:00;;;;;;;0.88;0.40;;;7.80;99.90;;;7.14;100.00;94881.56;5026408;28;20942;-47
2023/03/10 06:57:26;;;;;;;1.38;0.57;;;7.70;99.90;;;7.04;100.00;94878.66;5034967;28;20040;-44
2023/03/10 06:59:53;;;;;;;0.93;0.30;;;7.60;99.90;;;7.01;100.00;94886.72;5031051;28;20322;-47
2023/03/10 07:02:18;;;;;;;4.60;0.70;;;7.60;99.90;;;7.01;100.00;94893.75;5025565;28;20059;-44
2023/03/10 07:04:45;;;;;;;1.73;0.70;;;7.60;99.90;;;7.10;100.00;94900.19;5023497;28;20037;-47
2023/03/10 07:07:12;;;;;;;1.30;0.50;;;7.70;99.90;;;7.30;100.00;94898.91;5036538;28;20079;-47
2023/03/10 07:09:38;;;;;;;1.30;0.52;;;7.80;99.90;;;7.32;100.00;94876.06;5027795;28;20033;-48
2023/03/10 07:12:04;;;;;;;0.47;0.32;;;8.00;99.90;;;7.57;100.00;94893.66;5029324;28;20029;-43
2023/03/10 07:14:30;;;;;;;2.63;0.60;;;8.20;99.90;;;7.79;100.00;94901.81;5031732;28;20036;-45
2023/03/10 07:16:56;;;;;;;2.35;0.85;;;8.30;99.90;;;7.83;100.00;94900.69;5035910;28;20108;-47
2023/03/10 07:19:22;;;;;;;3.03;1.10;;;8.40;99.90;;;7.87;100.00;94892.63;5039939;28;20512;-45
2023/03/10 07:21:48;;;;;;;3.25;1.00;;;8.40;99.90;;;7.87;100.00;94897.84;5034128;28;20058;-44
2023/03/10 07:24:15;;;;;;;4.07;0.95;;;8.40;99.90;;;7.87;100.00;94900.47;5031796;28;20040;-48
2023/03/10 07:26:40;;;;;;;0.82;0.60;;;8.40;99.90;;;7.86;100.00;94901.41;5031272;28;20043;-47
2023/03/10 07:29:06;;;;;;;1.00;0.70;;;8.40;99.90;;;7.83;100.00;94908.56;5030032;28;20256;-47
2023/03/10 07:31:33;;;;;;;1.83;0.70;;;8.30;99.90;;;7.83;100.00;94913.78;5027485;28;20030;-47
2023/03/10 07:34:00;;;;;;;0.88;0.50;;;8.40;99.90;;;7.91;100.00;94917.69;5022866;28;20025;-47
2023/03/10 07:36:27;;;;;;;2.15;0.75;;;8.40;99.90;;;8.01;100.00;94924.84;5026836;28;20028;-48
2023/03/10 07:38:53;;;;;;;2.25;0.80;;;8.50;99.90;;;8.08;100.00;94927.94;5021843;28;20029;-49
2023/03/10 07:41:20;;;;;;;1.95;0.50;;;8.60;99.90;;;8.21;100.00;94915.66;5028901;28;20025;-45
2023/03/10 07:43:49;;;;;;;1.10;0.60;;;8.70;99.90;;;8.30;100.00;94923.88;5024131;28;20091;-44
2023/03/10 07:46:14;;;;;;;2.13;0.80;;;8.80;99.90;;;8.41;100.00;94926.59;5027547;28;20117;-46
2023/03/10 07:48:40;;;;;;;1.67;0.82;;;8.90;99.90;;;8.53;100.00;94923.16;5027736;28;20032;-46
2023/03/10 07:51:07;;;;;;;1.38;0.73;;;9.10;99.90;;;8.66;100.00;94922.34;5024472;28;20028;-46
2023/03/10 07:53:33;;;;;;;3.83;0.88;;;9.20;99.90;;;8.82;100.00;94928.19;5026771;28;20516;-47
2023/03/10 07:56:02;;;;;;;4.18;0.70;;;9.40;99.90;;;8.96;100.00;94929.88;5028189;28;20036;-47
2023/03/10 07:58:28;;;;;;;1.77;1.00;;;9.50;99.90;;;9.07;100.00;94931.75;5028391;28;20040;-47
2023/03/10 08:00:58;;;;;;;2.22;1.00;;;9.60;99.90;;;9.04;100.00;94927.53;5026260;28;20037;-47
2023/03/10 08:03:26;;;;;;;3.05;1.10;;;9.60;99.90;;;8.98;100.00;94939.31;5029026;28;20025;-47
2023/03/10 08:05:51;;;;;;;3.17;1.08;;;9.50;99.90;;;8.76;100.00;94939.97;5026176;28;20025;-47
2023/03/10 08:08:17;;;;;;;1.90;0.52;;;9.40;99.90;;;8.55;100.00;94952.78;5026946;28;20068;-47
2023/03/10 08:10:43;;;;;;;1.85;0.60;;;9.20;99.90;;;8.41;100.00;94953.69;5027951;28;20064;-45
2023/03/10 08:13:09;;;;;;;4.20;0.55;;;9.00;99.90;;;8.18;100.00;94960.50;5026561;28;20116;-45
2023/03/10 08:15:38;;;;;;;2.42;0.40;;;8.80;99.90;;;8.01;100.00;94971.28;5037306;28;20058;-47
2023/03/10 08:18:06;;;;;;;2.70;0.70;;;8.60;99.90;;;7.79;100.00;94962.16;5025426;28;20519;-45
2023/03/10 08:20:34;;;;;;;6.28;0.50;;;8.50;99.90;;;7.69;100.00;94968.94;5029405;28;20419;-46
2023/03/10 08:23:00;;;;;;;1.48;0.47;;;8.30;99.90;;;7.64;100.00;94966.63;5024655;28;20607;-46
2023/03/10 08:25:26;;;;;;;1.00;0.47;;;8.20;99.90;;;7.62;100.00;94968.50;5028587;28;20037;-46
2023/03/10 08:27:52;;;;;;;1.25;0.40;;;8.20;99.90;;;7.69;100.00;94953.19;5026101;28;20383;-46
2023/03/10 08:30:17;;;;;;;1.88;0.47;;;8.30;99.90;;;7.42;100.00;94922.56;5027332;28;20029;-45
2023/03/10 08:32:43;;;;;;;1.73;0.43;;;8.30;99.90;;;7.79;100.00;94975.28;5026243;28;20037;-48
2023/03/10 08:35:09;;;;;;;1.30;0.40;;;8.40;99.90;;;7.82;100.00;94980.34;5021566;28;20109;-44
2023/03/10 08:37:35;;;;;;;1.77;0.70;;;8.40;99.90;;;7.86;100.00;94980.13;5024386;28;20028;-43
2023/03/10 08:40:01;;;;;;;1.50;0.50;;;8.40;99.90;;;7.93;100.00;94973.53;5027560;28;20380;-46
2023/03/10 08:42:26;;;;;;;1.02;0.50;;;8.50;99.90;;;8.09;100.00;94962.88;5032394;28;20469;-44
2023/03/10 08:44:55;;;;;;;1.58;0.57;;;8.70;99.90;;;8.53;100.00;94975.69;5039637;28;20130;-45
2023/03/10 08:47:22;;;;;;;1.83;0.47;;;9.10;99.90;;;8.87;100.00;94994.44;5033400;28;20055;-44
2023/03/10 08:49:48;;;;;;;2.90;0.45;;;9.50;99.90;;;9.14;100.00;95004.00;5033390;28;20029;-47
2023/03/10 08:52:14;;;;;;;2.38;0.30;;;9.70;99.90;;;9.22;100.00;94982.41;5034045;28;20074;-47
2023/03/10 08:54:40;;;;;;;0.95;0.32;;;9.80;99.90;;;9.26;100.00;94970.72;5032820;28;20029;-46
2023/03/10 08:57:06;;;;;;;1.48;0.57;;;9.80;99.90;;;9.15;100.00;94984.63;5032420;28;20413;-46
2023/03/10 08:59:31;;;;;;;2.85;0.50;;;9.70;99.90;;;8.98;100.00;94980.56;5031254;28;20036;-43
2023/03/10 09:01:57;;;;;;;1.70;0.20;;;9.60;99.90;;;8.79;100.00;94954.69;5032777;28;20076;-44
2023/03/10 09:04:23;;;;;;;1.67;0.55;;;9.50;99.90;;;8.92;100.00;94999.38;5036367;28;20029;-43
2023/03/10 09:06:48;;;;;;;5.88;1.00;;;9.50;99.90;;;9.02;100.00;95000.41;5036817;28;20040;-46
2023/03/10 09:09:15;;;;;;;1.13;0.57;;;9.60;99.90;;;9.16;100.00;95007.34;5035725;28;20558;-43
2023/03/10 09:11:41;;;;;;;2.35;0.47;;;9.70;99.90;;;9.35;100.00;94996.41;5029902;28;20044;-47
2023/03/10 09:14:08;;;;;;;1.00;0.32;;;9.90;99.90;;;9.60;100.00;95005.16;5035078;28;20017;-45
2023/03/10 09:16:33;;;;;;;2.55;0.60;;;10.20;99.90;;;9.95;100.00;95005.25;5037010;28;20484;-45
2023/03/10 09:19:00;;;;;;;1.48;0.75;;;10.50;99.90;;;10.12;100.00;95001.38;5031296;28;20029;-44
2023/03/10 09:21:27;;;;;;;2.83;0.73;;;10.70;99.90;;;10.29;100.00;95001.00;5035916;28;20098;-45
2023/03/10 09:23:54;;;;;;;3.03;0.90;;;10.90;99.90;;;10.37;100.00;95013.63;5032950;28;20057;-44
2023/03/10 09:26:21;;;;;;;2.55;0.70;;;11.00;99.90;;;10.49;100.00;95014.50;5033716;28;20808;-43
2023/03/10 09:28:48;;;;;;;0.90;0.60;;;11.10;99.90;;;10.64;100.00;95010.75;5033478;28;20110;-47
2023/03/10 09:31:35;;;;;;;1.88;0.70;;;11.20;99.90;;;10.92;100.00;95018.34;5033195;28;20501;-47
2023/03/10 09:34:02;;;;;;;1.27;0.47;;;11.50;99.90;;;11.07;100.00;95022.44;5032057;28;20323;-47
2023/03/10 09:36:28;;;;;;;5.93;0.70;;;11.60;99.90;;;11.13;100.00;95011.44;5038733;28;20387;-43
2023/03/10 09:38:56;;;;;;;1.33;0.50;;;11.70;99.90;;;11.20;100.00;95023.19;5035774;28;20087;-47
2023/03/10 09:41:40;;;;;;;1.27;0.60;;;11.90;99.90;;;11.30;100.00;95012.75;5036478;28;20621;-44
2023/03/10 09:44:42;;;;;;;2.17;0.50;;;11.90;99.90;;;11.51;100.00;95015.50;5034317;28;20051;-44
2023/03/10 09:47:22;;;;;;;2.45;0.90;;;12.10;99.90;;;11.60;100.00;95020.06;5030503;28;20703;-46
2023/03/10 09:50:55;;;;;;;3.08;0.80;;;12.30;99.90;;;11.56;100.00;95020.44;5032889;28;20029;-47
2023/03/10 09:53:55;;;;;;;3.28;0.75;;;12.20;99.90;;;11.43;100.00;95026.66;5007276;28;20048;-45
2023/03/10 09:56:30;;;;;;;2.92;0.82;;;12.10;99.90;;;11.16;100.00;95024.38;5029743;28;20283;-44
2023/03/10 09:59:20;;;;;;;6.18;1.00;;;11.90;99.90;;;11.08;100.00;95013.56;5032522;28;20033;-48
2023/03/10 10:01:49;;;;;;;1.17;0.40;;;11.80;99.90;;;11.15;100.00;95019.22;5025621;28;20767;-46
2023/03/10 10:04:30;;;;;;;5.60;0.80;;;11.70;99.90;;;11.24;100.00;95010.59;5020398;28;20047;-46
2023/03/10 10:06:57;;;;;;;3.60;0.90;;;11.80;99.90;;;11.12;100.00;95016.81;5032113;28;20048;-48
2023/03/10 10:09:31;;;;;;;3.28;0.90;;;11.80;99.90;;;11.22;100.00;95015.97;5031433;28;20450;-45
2023/03/10 10:12:09;;;;;;;1.30;0.65;;;11.80;99.90;;;11.26;100.00;95022.69;5031538;28;20036;-44
2023/03/10 10:14:35;;;;;;;3.88;0.82;;;11.90;99.90;;;11.34;100.00;95008.06;5028961;28;20033;-49
2023/03/10 10:17:46;;;;;;;2.65;0.65;;;11.90;99.90;;;11.25;100.00;95006.97;5032351;28;20103;-43
2023/03/10 10:20:28;;;;;;;3.65;0.75;;;11.90;99.90;;;11.17;100.00;95022.56;5033405;28;20041;-48
2023/03/10 10:22:53;;;;;;;3.13;0.75;;;11.70;99.90;;;11.04;100.00;95012.13;5045662;28;20037;-45
2023/03/10 10:25:26;;;;;;;2.13;0.45;;;11.60;99.90;;;10.83;100.00;95025.16;5033289;28;20401;-47
2023/03/10 10:27:54;;;;;;;2.55;0.80;;;11.50;99.90;;;10.66;100.00;95010.63;5032309;28;20292;-46
2023/03/10 10:30:49;;;;;;;1.65;0.68;;;11.30;99.90;;;10.58;100.00;94984.84;5035854;28;20075;-44